sensor_id;sensor_type;location;lat;lon;timestamp;P1;P2;P0
69123;PMS5003;56232;53.384;-2.732;2023-05-16T00:01:11;1;1;
69123;PMS5003;56232;53.384;-2.732;2023-05-16T00:03:37;2;2;
69123;PMS5003;56232;53.384;-2.732;2023-05-16T00:06:03;3;2;
69123;PMS5003;56232;53.384;-2.732;2023-05-16T00:08:33;1;1;
69123;PMS5003;56232;53.384;-2.732;2023-05-16T00:10:54;3;2;
69123;PMS5003;56232;53.384;-2.732;2023-05-16T00:13:20;1;1;
69123;PMS5003;56232;53.384;-2.732;2023-05-16T00:15:46;6;3;
69123;PMS5003;56232;53.384;-2.732;2023-05-16T00:18:11;4;3;
69123;PMS5003;56232;53.384;-2.732;2023-05-16T00:20:37;1;1;
69123;PMS5003;56232;53.384;-2.732;2023-05-16T00:23:02;5;2;
69123;PMS5003;56232;53.384;-2.732;2023-05-16T00:25:28;4;2;
69123;PMS5003;56232;53.384;-2.732;2023-05-16T00:27:54;2;2;
69123;PMS5003;56232;53.384;-2.732;2023-05-16T00:30:20;3;2;
69123;PMS5003;56232;53.384;-2.732;2023-05-16T00:32:45;3;2;
69123;PMS5003;56232;53.384;-2.732;2023-05-16T00:35:11;3;2;
69123;PMS5003;56232;53.384;-2.732;2023-05-16T00:37:37;3;2;
69123;PMS5003;56232;53.384;-2.732;2023-05-16T00:40:03;3;3;
69123;PMS5003;56232;53.384;-2.732;2023-05-16T00:42:29;2;1;
69123;PMS5003;56232;53.384;-2.732;2023-05-16T00:44:54;1;1;
69123;PMS5003;56232;53.384;-2.732;2023-05-16T00:47:20;1;1;
69123;PMS5003;56232;53.384;-2.732;2023-05-16T00:49:46;2;2;
69123;PMS5003;56232;53.384;-2.732;2023-05-16T00:52:12;2;1;
69123;PMS5003;56232;53.384;-2.732;2023-05-16T00:54:37;3;2;
69123;PMS5003;56232;53.384;-2.732;2023-05-16T00:57:03;2;1;
69123;PMS5003;56232;53.384;-2.732;2023-05-16T00:59:29;2;2;
69123;PMS5003;56232;53.384;-2.732;2023-05-16T01:01:54;4;2;
69123;PMS5003;56232;53.384;-2.732;2023-05-16T01:04:20;4;3;
69123;PMS5003;56232;53.384;-2.732;2023-05-16T01:06:46;4;2;
69123;PMS5003;56232;53.384;-2.732;2023-05-16T01:09:11;2;2;
69123;PMS5003;56232;53.384;-2.732;2023-05-16T01:11:38;3;2;
69123;PMS5003;56232;53.384;-2.732;2023-05-16T01:14:06;1;1;
69123;PMS5003;56232;53.384;-2.732;2023-05-16T01:16:30;2;1;
69123;PMS5003;56232;53.384;-2.732;2023-05-16T01:18:56;2;2;
69123;PMS5003;56232;53.384;-2.732;2023-05-16T01:21:22;1;1;
69123;PMS5003;56232;53.384;-2.732;2023-05-16T01:23:50;1;0;
69123;PMS5003;56232;53.384;-2.732;2023-05-16T01:26:14;1;1;
69123;PMS5003;56232;53.384;-2.732;2023-05-16T01:28:37;7;2;
69123;PMS5003;56232;53.384;-2.732;2023-05-16T01:31:03;1;1;
69123;PMS5003;56232;53.384;-2.732;2023-05-16T01:33:29;2;2;
69123;PMS5003;56232;53.384;-2.732;2023-05-16T01:35:59;3;2;
69123;PMS5003;56232;53.384;-2.732;2023-05-16T01:38:25;4;3;
69123;PMS5003;56232;53.384;-2.732;2023-05-16T01:40:47;5;4;
69123;PMS5003;56232;53.384;-2.732;2023-05-16T01:43:19;4;3;
69123;PMS5003;56232;53.384;-2.732;2023-05-16T01:45:38;4;2;
69123;PMS5003;56232;53.384;-2.732;2023-05-16T01:48:04;2;2;
69123;PMS5003;56232;53.384;-2.732;2023-05-16T01:50:28;4;3;
69123;PMS5003;56232;53.384;-2.732;2023-05-16T01:52:55;3;2;
69123;PMS5003;56232;53.384;-2.732;2023-05-16T01:55:21;4;2;
69123;PMS5003;56232;53.384;-2.732;2023-05-16T01:57:45;3;3;
69123;PMS5003;56232;53.384;-2.732;2023-05-16T02:00:11;4;3;
69123;PMS5003;56232;53.384;-2.732;2023-05-16T02:02:37;4;2;
69123;PMS5003;56232;53.384;-2.732;2023-05-16T02:05:03;5;3;
69123;PMS5003;56232;53.384;-2.732;2023-05-16T02:07:28;1;1;
69123;PMS5003;56232;53.384;-2.732;2023-05-16T02:09:54;3;2;
69123;PMS5003;56232;53.384;-2.732;2023-05-16T02:12:19;7;2;
69123;PMS5003;56232;53.384;-2.732;2023-05-16T02:14:44;4;3;
69123;PMS5003;56232;53.384;-2.732;2023-05-16T02:17:10;3;2;
69123;PMS5003;56232;53.384;-2.732;2023-05-16T02:19:36;2;2;
69123;PMS5003;56232;53.384;-2.732;2023-05-16T02:22:02;1;1;
69123;PMS5003;56232;53.384;-2.732;2023-05-16T02:24:28;3;2;
69123;PMS5003;56232;53.384;-2.732;2023-05-16T02:26:53;2;2;
69123;PMS5003;56232;53.384;-2.732;2023-05-16T02:29:19;2;1;
69123;PMS5003;56232;53.384;-2.732;2023-05-16T02:31:44;3;2;
69123;PMS5003;56232;53.384;-2.732;2023-05-16T02:34:10;1;1;
69123;PMS5003;56232;53.384;-2.732;2023-05-16T02:36:36;2;2;
69123;PMS5003;56232;53.384;-2.732;2023-05-16T02:39:02;2;1;
69123;PMS5003;56232;53.384;-2.732;2023-05-16T02:41:27;2;2;
69123;PMS5003;56232;53.384;-2.732;2023-05-16T02:43:53;3;2;
69123;PMS5003;56232;53.384;-2.732;2023-05-16T02:46:19;2;2;
69123;PMS5003;56232;53.384;-2.732;2023-05-16T02:48:44;2;2;
69123;PMS5003;56232;53.384;-2.732;2023-05-16T02:51:10;3;2;
69123;PMS5003;56232;53.384;-2.732;2023-05-16T02:53:36;2;2;
69123;PMS5003;56232;53.384;-2.732;2023-05-16T02:56:02;3;2;
69123;PMS5003;56232;53.384;-2.732;2023-05-16T02:58:27;2;2;
69123;PMS5003;56232;53.384;-2.732;2023-05-16T03:00:53;3;3;
69123;PMS5003;56232;53.384;-2.732;2023-05-16T03:03:19;3;2;
69123;PMS5003;56232;53.384;-2.732;2023-05-16T03:05:45;3;2;
69123;PMS5003;56232;53.384;-2.732;2023-05-16T03:08:10;2;2;
69123;PMS5003;56232;53.384;-2.732;2023-05-16T03:10:36;3;2;
69123;PMS5003;56232;53.384;-2.732;2023-05-16T03:13:02;3;2;
69123;PMS5003;56232;53.384;-2.732;2023-05-16T03:15:27;2;1;
69123;PMS5003;56232;53.384;-2.732;2023-05-16T03:17:53;3;2;
69123;PMS5003;56232;53.384;-2.732;2023-05-16T03:20:19;2;2;
69123;PMS5003;56232;53.384;-2.732;2023-05-16T03:22:45;2;2;
69123;PMS5003;56232;53.384;-2.732;2023-05-16T03:25:10;4;3;
69123;PMS5003;56232;53.384;-2.732;2023-05-16T03:27:36;2;2;
69123;PMS5003;56232;53.384;-2.732;2023-05-16T03:30:02;2;1;
69123;PMS5003;56232;53.384;-2.732;2023-05-16T03:32:28;3;2;
69123;PMS5003;56232;53.384;-2.732;2023-05-16T03:34:53;2;2;
69123;PMS5003;56232;53.384;-2.732;2023-05-16T03:37:19;2;1;
69123;PMS5003;56232;53.384;-2.732;2023-05-16T03:39:45;3;3;
69123;PMS5003;56232;53.384;-2.732;2023-05-16T03:42:11;1;1;
69123;PMS5003;56232;53.384;-2.732;2023-05-16T03:44:36;1;1;
69123;PMS5003;56232;53.384;-2.732;2023-05-16T03:47:02;2;2;
69123;PMS5003;56232;53.384;-2.732;2023-05-16T03:49:28;2;2;
69123;PMS5003;56232;53.384;-2.732;2023-05-16T03:51:54;1;1;
69123;PMS5003;56232;53.384;-2.732;2023-05-16T03:54:20;2;1;
69123;PMS5003;56232;53.384;-2.732;2023-05-16T03:56:45;1;0;
69123;PMS5003;56232;53.384;-2.732;2023-05-16T03:59:11;3;2;
69123;PMS5003;56232;53.384;-2.732;2023-05-16T04:01:37;2;2;
69123;PMS5003;56232;53.384;-2.732;2023-05-16T04:04:03;2;2;
69123;PMS5003;56232;53.384;-2.732;2023-05-16T04:06:28;4;3;
69123;PMS5003;56232;53.384;-2.732;2023-05-16T04:08:54;3;2;
69123;PMS5003;56232;53.384;-2.732;2023-05-16T04:11:20;1;1;
69123;PMS5003;56232;53.384;-2.732;2023-05-16T04:13:45;2;2;
69123;PMS5003;56232;53.384;-2.732;2023-05-16T04:16:11;1;1;
69123;PMS5003;56232;53.384;-2.732;2023-05-16T04:18:37;2;2;
69123;PMS5003;56232;53.384;-2.732;2023-05-16T04:21:03;1;1;
69123;PMS5003;56232;53.384;-2.732;2023-05-16T04:23:28;2;2;
69123;PMS5003;56232;53.384;-2.732;2023-05-16T04:25:54;3;2;
69123;PMS5003;56232;53.384;-2.732;2023-05-16T04:28:20;2;2;
69123;PMS5003;56232;53.384;-2.732;2023-05-16T04:30:46;4;3;
69123;PMS5003;56232;53.384;-2.732;2023-05-16T04:33:11;2;1;
69123;PMS5003;56232;53.384;-2.732;2023-05-16T04:35:37;3;2;
69123;PMS5003;56232;53.384;-2.732;2023-05-16T04:38:03;2;1;
69123;PMS5003;56232;53.384;-2.732;2023-05-16T04:40:29;2;2;
69123;PMS5003;56232;53.384;-2.732;2023-05-16T04:42:55;2;2;
69123;PMS5003;56232;53.384;-2.732;2023-05-16T04:45:20;5;2;
69123;PMS5003;56232;53.384;-2.732;2023-05-16T04:47:46;2;1;
69123;PMS5003;56232;53.384;-2.732;2023-05-16T04:50:12;4;4;
69123;PMS5003;56232;53.384;-2.732;2023-05-16T04:52:38;3;2;
69123;PMS5003;56232;53.384;-2.732;2023-05-16T04:55:04;5;5;
69123;PMS5003;56232;53.384;-2.732;2023-05-16T04:57:29;3;2;
69123;PMS5003;56232;53.384;-2.732;2023-05-16T04:59:55;3;3;
69123;PMS5003;56232;53.384;-2.732;2023-05-16T05:02:21;4;3;
69123;PMS5003;56232;53.384;-2.732;2023-05-16T05:04:46;3;3;
69123;PMS5003;56232;53.384;-2.732;2023-05-16T05:07:12;5;4;
69123;PMS5003;56232;53.384;-2.732;2023-05-16T05:09:38;5;4;
69123;PMS5003;56232;53.384;-2.732;2023-05-16T05:12:04;1;1;
69123;PMS5003;56232;53.384;-2.732;2023-05-16T05:14:29;4;3;
69123;PMS5003;56232;53.384;-2.732;2023-05-16T05:16:55;4;4;
69123;PMS5003;56232;53.384;-2.732;2023-05-16T05:19:20;3;1;
69123;PMS5003;56232;53.384;-2.732;2023-05-16T05:21:46;6;6;
69123;PMS5003;56232;53.384;-2.732;2023-05-16T05:24:11;2;2;
69123;PMS5003;56232;53.384;-2.732;2023-05-16T05:26:37;5;3;
69123;PMS5003;56232;53.384;-2.732;2023-05-16T05:29:02;4;3;
69123;PMS5003;56232;53.384;-2.732;2023-05-16T05:31:28;4;3;
69123;PMS5003;56232;53.384;-2.732;2023-05-16T05:33:54;4;4;
69123;PMS5003;56232;53.384;-2.732;2023-05-16T05:36:20;4;3;
69123;PMS5003;56232;53.384;-2.732;2023-05-16T05:38:45;3;3;
69123;PMS5003;56232;53.384;-2.732;2023-05-16T05:41:11;5;3;
69123;PMS5003;56232;53.384;-2.732;2023-05-16T05:43:37;5;4;
69123;PMS5003;56232;53.384;-2.732;2023-05-16T05:46:03;4;4;
69123;PMS5003;56232;53.384;-2.732;2023-05-16T05:48:28;4;3;
69123;PMS5003;56232;53.384;-2.732;2023-05-16T05:50:54;5;4;
69123;PMS5003;56232;53.384;-2.732;2023-05-16T05:53:20;4;3;
69123;PMS5003;56232;53.384;-2.732;2023-05-16T05:55:45;3;3;
69123;PMS5003;56232;53.384;-2.732;2023-05-16T05:58:11;5;5;
69123;PMS5003;56232;53.384;-2.732;2023-05-16T06:00:37;4;4;
69123;PMS5003;56232;53.384;-2.732;2023-05-16T06:03:03;5;5;
69123;PMS5003;56232;53.384;-2.732;2023-05-16T06:05:28;7;5;
69123;PMS5003;56232;53.384;-2.732;2023-05-16T06:07:54;5;4;
69123;PMS5003;56232;53.384;-2.732;2023-05-16T06:10:19;4;3;
69123;PMS5003;56232;53.384;-2.732;2023-05-16T06:12:45;5;4;
69123;PMS5003;56232;53.384;-2.732;2023-05-16T06:15:11;7;6;
69123;PMS5003;56232;53.384;-2.732;2023-05-16T06:17:36;6;4;
69123;PMS5003;56232;53.384;-2.732;2023-05-16T06:20:02;10;6;
69123;PMS5003;56232;53.384;-2.732;2023-05-16T06:22:28;7;5;
69123;PMS5003;56232;53.384;-2.732;2023-05-16T06:24:54;6;6;
69123;PMS5003;56232;53.384;-2.732;2023-05-16T06:27:19;5;4;
69123;PMS5003;56232;53.384;-2.732;2023-05-16T06:29:45;4;4;
69123;PMS5003;56232;53.384;-2.732;2023-05-16T06:32:10;6;5;
69123;PMS5003;56232;53.384;-2.732;2023-05-16T06:34:36;5;4;
69123;PMS5003;56232;53.384;-2.732;2023-05-16T06:37:01;8;6;
69123;PMS5003;56232;53.384;-2.732;2023-05-16T06:39:27;4;3;
69123;PMS5003;56232;53.384;-2.732;2023-05-16T06:41:52;8;6;
69123;PMS5003;56232;53.384;-2.732;2023-05-16T06:44:18;5;4;
69123;PMS5003;56232;53.384;-2.732;2023-05-16T06:46:44;5;4;
69123;PMS5003;56232;53.384;-2.732;2023-05-16T06:49:09;4;4;
69123;PMS5003;56232;53.384;-2.732;2023-05-16T06:51:35;5;4;
69123;PMS5003;56232;53.384;-2.732;2023-05-16T06:54:00;5;5;
69123;PMS5003;56232;53.384;-2.732;2023-05-16T06:56:26;4;4;
69123;PMS5003;56232;53.384;-2.732;2023-05-16T06:58:51;3;3;
69123;PMS5003;56232;53.384;-2.732;2023-05-16T07:01:17;5;4;
69123;PMS5003;56232;53.384;-2.732;2023-05-16T07:03:42;6;5;
69123;PMS5003;56232;53.384;-2.732;2023-05-16T07:06:08;4;4;
69123;PMS5003;56232;53.384;-2.732;2023-05-16T07:08:34;6;6;
69123;PMS5003;56232;53.384;-2.732;2023-05-16T07:10:59;4;3;
69123;PMS5003;56232;53.384;-2.732;2023-05-16T07:13:24;8;8;
69123;PMS5003;56232;53.384;-2.732;2023-05-16T07:15:50;6;6;
69123;PMS5003;56232;53.384;-2.732;2023-05-16T07:18:15;9;7;
69123;PMS5003;56232;53.384;-2.732;2023-05-16T07:20:41;8;7;
69123;PMS5003;56232;53.384;-2.732;2023-05-16T07:23:07;6;6;
69123;PMS5003;56232;53.384;-2.732;2023-05-16T07:25:33;7;6;
69123;PMS5003;56232;53.384;-2.732;2023-05-16T07:27:58;7;6;
69123;PMS5003;56232;53.384;-2.732;2023-05-16T07:30:23;9;9;
69123;PMS5003;56232;53.384;-2.732;2023-05-16T07:32:49;9;8;
69123;PMS5003;56232;53.384;-2.732;2023-05-16T07:35:14;8;7;
69123;PMS5003;56232;53.384;-2.732;2023-05-16T07:37:40;5;5;
69123;PMS5003;56232;53.384;-2.732;2023-05-16T07:40:06;5;5;
69123;PMS5003;56232;53.384;-2.732;2023-05-16T07:42:31;10;8;
69123;PMS5003;56232;53.384;-2.732;2023-05-16T07:44:56;13;12;
69123;PMS5003;56232;53.384;-2.732;2023-05-16T07:47:27;9;8;
69123;PMS5003;56232;53.384;-2.732;2023-05-16T07:49:47;5;4;
69123;PMS5003;56232;53.384;-2.732;2023-05-16T07:52:13;8;8;
69123;PMS5003;56232;53.384;-2.732;2023-05-16T07:54:38;8;8;
69123;PMS5003;56232;53.384;-2.732;2023-05-16T07:57:04;8;8;
69123;PMS5003;56232;53.384;-2.732;2023-05-16T07:59:30;9;8;
69123;PMS5003;56232;53.384;-2.732;2023-05-16T08:01:55;9;9;
69123;PMS5003;56232;53.384;-2.732;2023-05-16T08:04:21;10;7;
69123;PMS5003;56232;53.384;-2.732;2023-05-16T08:06:47;11;9;
69123;PMS5003;56232;53.384;-2.732;2023-05-16T08:09:13;9;7;
69123;PMS5003;56232;53.384;-2.732;2023-05-16T08:11:38;7;7;
69123;PMS5003;56232;53.384;-2.732;2023-05-16T08:14:03;7;7;
69123;PMS5003;56232;53.384;-2.732;2023-05-16T08:16:29;8;8;
69123;PMS5003;56232;53.384;-2.732;2023-05-16T08:18:55;7;7;
69123;PMS5003;56232;53.384;-2.732;2023-05-16T08:21:20;9;9;
69123;PMS5003;56232;53.384;-2.732;2023-05-16T08:23:46;10;9;
69123;PMS5003;56232;53.384;-2.732;2023-05-16T08:26:11;8;8;
69123;PMS5003;56232;53.384;-2.732;2023-05-16T08:28:37;8;8;
69123;PMS5003;56232;53.384;-2.732;2023-05-16T08:31:03;7;7;
69123;PMS5003;56232;53.384;-2.732;2023-05-16T08:33:28;12;10;
69123;PMS5003;56232;53.384;-2.732;2023-05-16T08:35:54;10;7;
69123;PMS5003;56232;53.384;-2.732;2023-05-16T08:38:20;8;6;
69123;PMS5003;56232;53.384;-2.732;2023-05-16T08:40:45;5;5;
69123;PMS5003;56232;53.384;-2.732;2023-05-16T08:43:11;7;6;
69123;PMS5003;56232;53.384;-2.732;2023-05-16T08:45:36;7;7;
69123;PMS5003;56232;53.384;-2.732;2023-05-16T08:48:02;8;7;
69123;PMS5003;56232;53.384;-2.732;2023-05-16T08:50:28;9;9;
69123;PMS5003;56232;53.384;-2.732;2023-05-16T08:52:53;5;4;
69123;PMS5003;56232;53.384;-2.732;2023-05-16T08:55:19;9;8;
69123;PMS5003;56232;53.384;-2.732;2023-05-16T08:57:44;7;6;
69123;PMS5003;56232;53.384;-2.732;2023-05-16T09:00:10;11;9;
69123;PMS5003;56232;53.384;-2.732;2023-05-16T09:02:35;10;9;
69123;PMS5003;56232;53.384;-2.732;2023-05-16T09:05:01;11;9;
69123;PMS5003;56232;53.384;-2.732;2023-05-16T09:07:26;10;10;
69123;PMS5003;56232;53.384;-2.732;2023-05-16T09:09:52;6;6;
69123;PMS5003;56232;53.384;-2.732;2023-05-16T09:12:18;7;6;
69123;PMS5003;56232;53.384;-2.732;2023-05-16T09:14:43;9;8;
69123;PMS5003;56232;53.384;-2.732;2023-05-16T09:17:09;7;5;
69123;PMS5003;56232;53.384;-2.732;2023-05-16T09:19:37;8;7;
69123;PMS5003;56232;53.384;-2.732;2023-05-16T09:22:00;8;8;
69123;PMS5003;56232;53.384;-2.732;2023-05-16T09:24:25;8;7;
69123;PMS5003;56232;53.384;-2.732;2023-05-16T09:26:51;12;10;
69123;PMS5003;56232;53.384;-2.732;2023-05-16T09:29:17;10;9;
69123;PMS5003;56232;53.384;-2.732;2023-05-16T09:31:42;7;7;
69123;PMS5003;56232;53.384;-2.732;2023-05-16T09:34:08;8;7;
69123;PMS5003;56232;53.384;-2.732;2023-05-16T09:36:34;9;9;
69123;PMS5003;56232;53.384;-2.732;2023-05-16T09:38:59;7;7;
69123;PMS5003;56232;53.384;-2.732;2023-05-16T09:41:25;8;6;
69123;PMS5003;56232;53.384;-2.732;2023-05-16T09:43:50;8;7;
69123;PMS5003;56232;53.384;-2.732;2023-05-16T09:46:16;6;5;
69123;PMS5003;56232;53.384;-2.732;2023-05-16T09:48:43;7;7;
69123;PMS5003;56232;53.384;-2.732;2023-05-16T09:51:07;10;8;
69123;PMS5003;56232;53.384;-2.732;2023-05-16T09:53:33;9;7;
69123;PMS5003;56232;53.384;-2.732;2023-05-16T09:55:59;9;8;
69123;PMS5003;56232;53.384;-2.732;2023-05-16T09:58:26;8;8;
69123;PMS5003;56232;53.384;-2.732;2023-05-16T10:00:49;6;6;
69123;PMS5003;56232;53.384;-2.732;2023-05-16T10:03:15;8;7;
69123;PMS5003;56232;53.384;-2.732;2023-05-16T10:05:40;8;7;
69123;PMS5003;56232;53.384;-2.732;2023-05-16T10:08:06;9;7;
69123;PMS5003;56232;53.384;-2.732;2023-05-16T10:10:32;8;7;
69123;PMS5003;56232;53.384;-2.732;2023-05-16T10:12:57;8;8;
69123;PMS5003;56232;53.384;-2.732;2023-05-16T10:15:22;8;8;
69123;PMS5003;56232;53.384;-2.732;2023-05-16T10:17:49;7;6;
69123;PMS5003;56232;53.384;-2.732;2023-05-16T10:20:13;9;8;
69123;PMS5003;56232;53.384;-2.732;2023-05-16T10:22:39;7;7;
69123;PMS5003;56232;53.384;-2.732;2023-05-16T10:25:07;10;7;
69123;PMS5003;56232;53.384;-2.732;2023-05-16T10:27:29;6;6;
69123;PMS5003;56232;53.384;-2.732;2023-05-16T10:29:55;8;8;
69123;PMS5003;56232;53.384;-2.732;2023-05-16T10:32:21;9;9;
69123;PMS5003;56232;53.384;-2.732;2023-05-16T10:34:46;10;8;
69123;PMS5003;56232;53.384;-2.732;2023-05-16T10:37:12;9;7;
69123;PMS5003;56232;53.384;-2.732;2023-05-16T10:39:37;7;5;
69123;PMS5003;56232;53.384;-2.732;2023-05-16T10:42:02;10;10;
69123;PMS5003;56232;53.384;-2.732;2023-05-16T10:44:30;11;8;
69123;PMS5003;56232;53.384;-2.732;2023-05-16T10:46:53;9;8;
69123;PMS5003;56232;53.384;-2.732;2023-05-16T10:49:19;7;6;
69123;PMS5003;56232;53.384;-2.732;2023-05-16T10:51:44;6;6;
69123;PMS5003;56232;53.384;-2.732;2023-05-16T10:54:10;7;7;
69123;PMS5003;56232;53.384;-2.732;2023-05-16T10:56:35;9;8;
69123;PMS5003;56232;53.384;-2.732;2023-05-16T10:59:01;7;7;
69123;PMS5003;56232;53.384;-2.732;2023-05-16T11:01:26;9;6;
69123;PMS5003;56232;53.384;-2.732;2023-05-16T11:06:19;9;7;
69123;PMS5003;56232;53.384;-2.732;2023-05-16T11:18:25;10;8;
69123;PMS5003;56232;53.384;-2.732;2023-05-16T11:20:50;9;8;
69123;PMS5003;56232;53.384;-2.732;2023-05-16T11:23:18;7;6;
69123;PMS5003;56232;53.384;-2.732;2023-05-16T11:25:41;10;9;
69123;PMS5003;56232;53.384;-2.732;2023-05-16T11:28:07;9;9;
69123;PMS5003;56232;53.384;-2.732;2023-05-16T11:30:32;9;7;
69123;PMS5003;56232;53.384;-2.732;2023-05-16T11:32:57;9;9;
69123;PMS5003;56232;53.384;-2.732;2023-05-16T11:35:23;9;7;
69123;PMS5003;56232;53.384;-2.732;2023-05-16T11:37:49;9;8;
69123;PMS5003;56232;53.384;-2.732;2023-05-16T11:40:14;8;7;
69123;PMS5003;56232;53.384;-2.732;2023-05-16T11:42:40;10;9;
69123;PMS5003;56232;53.384;-2.732;2023-05-16T11:45:06;5;5;
69123;PMS5003;56232;53.384;-2.732;2023-05-16T11:47:31;9;7;
69123;PMS5003;56232;53.384;-2.732;2023-05-16T11:50:02;8;7;
69123;PMS5003;56232;53.384;-2.732;2023-05-16T11:52:22;10;9;
69123;PMS5003;56232;53.384;-2.732;2023-05-16T11:54:47;11;10;
69123;PMS5003;56232;53.384;-2.732;2023-05-16T11:57:13;6;4;
69123;PMS5003;56232;53.384;-2.732;2023-05-16T11:59:38;6;5;
69123;PMS5003;56232;53.384;-2.732;2023-05-16T12:02:04;10;8;
69123;PMS5003;56232;53.384;-2.732;2023-05-16T12:04:29;7;6;
69123;PMS5003;56232;53.384;-2.732;2023-05-16T12:06:57;9;8;
69123;PMS5003;56232;53.384;-2.732;2023-05-16T12:09:21;11;9;
69123;PMS5003;56232;53.384;-2.732;2023-05-16T12:11:46;8;7;
69123;PMS5003;56232;53.384;-2.732;2023-05-16T12:14:12;7;7;
69123;PMS5003;56232;53.384;-2.732;2023-05-16T12:16:38;9;8;
69123;PMS5003;56232;53.384;-2.732;2023-05-16T12:19:03;6;6;
69123;PMS5003;56232;53.384;-2.732;2023-05-16T12:21:29;11;8;
69123;PMS5003;56232;53.384;-2.732;2023-05-16T12:23:54;7;6;
69123;PMS5003;56232;53.384;-2.732;2023-05-16T12:26:22;10;6;
69123;PMS5003;56232;53.384;-2.732;2023-05-16T12:28:45;7;6;
69123;PMS5003;56232;53.384;-2.732;2023-05-16T12:31:10;11;8;
69123;PMS5003;56232;53.384;-2.732;2023-05-16T12:33:36;13;12;
69123;PMS5003;56232;53.384;-2.732;2023-05-16T12:36:01;7;6;
69123;PMS5003;56232;53.384;-2.732;2023-05-16T12:38:27;10;8;
69123;PMS5003;56232;53.384;-2.732;2023-05-16T12:40:56;7;6;
69123;PMS5003;56232;53.384;-2.732;2023-05-16T12:43:18;10;7;
69123;PMS5003;56232;53.384;-2.732;2023-05-16T12:45:48;10;8;
69123;PMS5003;56232;53.384;-2.732;2023-05-16T12:48:12;6;5;
69123;PMS5003;56232;53.384;-2.732;2023-05-16T12:50:35;10;9;
69123;PMS5003;56232;53.384;-2.732;2023-05-16T12:53:00;8;7;
69123;PMS5003;56232;53.384;-2.732;2023-05-16T12:55:26;9;8;
69123;PMS5003;56232;53.384;-2.732;2023-05-16T12:57:51;9;9;
69123;PMS5003;56232;53.384;-2.732;2023-05-16T13:00:17;8;7;
69123;PMS5003;56232;53.384;-2.732;2023-05-16T13:02:42;7;7;
69123;PMS5003;56232;53.384;-2.732;2023-05-16T13:05:08;7;7;
69123;PMS5003;56232;53.384;-2.732;2023-05-16T13:07:34;6;6;
69123;PMS5003;56232;53.384;-2.732;2023-05-16T13:09:59;8;6;
69123;PMS5003;56232;53.384;-2.732;2023-05-16T13:12:25;7;6;
69123;PMS5003;56232;53.384;-2.732;2023-05-16T13:14:50;8;8;
69123;PMS5003;56232;53.384;-2.732;2023-05-16T13:17:16;5;5;
69123;PMS5003;56232;53.384;-2.732;2023-05-16T13:19:41;9;8;
69123;PMS5003;56232;53.384;-2.732;2023-05-16T13:22:07;8;7;
69123;PMS5003;56232;53.384;-2.732;2023-05-16T13:24:33;8;8;
69123;PMS5003;56232;53.384;-2.732;2023-05-16T13:26:57;7;6;
69123;PMS5003;56232;53.384;-2.732;2023-05-16T13:29:23;5;5;
69123;PMS5003;56232;53.384;-2.732;2023-05-16T13:31:48;7;6;
69123;PMS5003;56232;53.384;-2.732;2023-05-16T13:34:14;8;7;
69123;PMS5003;56232;53.384;-2.732;2023-05-16T13:36:40;6;6;
69123;PMS5003;56232;53.384;-2.732;2023-05-16T13:39:05;7;7;
69123;PMS5003;56232;53.384;-2.732;2023-05-16T13:41:31;7;6;
69123;PMS5003;56232;53.384;-2.732;2023-05-16T13:43:56;6;6;
69123;PMS5003;56232;53.384;-2.732;2023-05-16T13:46:22;6;6;
69123;PMS5003;56232;53.384;-2.732;2023-05-16T13:48:48;7;5;
69123;PMS5003;56232;53.384;-2.732;2023-05-16T13:51:13;6;5;
69123;PMS5003;56232;53.384;-2.732;2023-05-16T13:53:39;9;8;
69123;PMS5003;56232;53.384;-2.732;2023-05-16T13:56:04;9;6;
69123;PMS5003;56232;53.384;-2.732;2023-05-16T13:58:30;7;6;
69123;PMS5003;56232;53.384;-2.732;2023-05-16T14:00:55;7;6;
69123;PMS5003;56232;53.384;-2.732;2023-05-16T14:03:26;7;7;
69123;PMS5003;56232;53.384;-2.732;2023-05-16T14:05:46;5;5;
69123;PMS5003;56232;53.384;-2.732;2023-05-16T14:08:12;7;6;
69123;PMS5003;56232;53.384;-2.732;2023-05-16T14:10:37;6;5;
69123;PMS5003;56232;53.384;-2.732;2023-05-16T14:13:03;5;4;
69123;PMS5003;56232;53.384;-2.732;2023-05-16T14:15:29;8;7;
69123;PMS5003;56232;53.384;-2.732;2023-05-16T14:17:54;9;7;
69123;PMS5003;56232;53.384;-2.732;2023-05-16T14:20:20;7;6;
69123;PMS5003;56232;53.384;-2.732;2023-05-16T14:22:45;4;4;
69123;PMS5003;56232;53.384;-2.732;2023-05-16T14:25:11;7;6;
69123;PMS5003;56232;53.384;-2.732;2023-05-16T14:27:36;6;4;
69123;PMS5003;56232;53.384;-2.732;2023-05-16T14:30:02;7;6;
69123;PMS5003;56232;53.384;-2.732;2023-05-16T14:32:27;5;5;
69123;PMS5003;56232;53.384;-2.732;2023-05-16T14:34:53;10;8;
69123;PMS5003;56232;53.384;-2.732;2023-05-16T14:37:18;8;6;
69123;PMS5003;56232;53.384;-2.732;2023-05-16T14:39:45;6;5;
69123;PMS5003;56232;53.384;-2.732;2023-05-16T14:42:09;6;5;
69123;PMS5003;56232;53.384;-2.732;2023-05-16T14:44:35;9;8;
69123;PMS5003;56232;53.384;-2.732;2023-05-16T14:47:00;5;5;
69123;PMS5003;56232;53.384;-2.732;2023-05-16T14:49:26;6;5;
69123;PMS5003;56232;53.384;-2.732;2023-05-16T14:51:52;7;6;
69123;PMS5003;56232;53.384;-2.732;2023-05-16T14:54:17;4;3;
69123;PMS5003;56232;53.384;-2.732;2023-05-16T14:56:43;6;6;
69123;PMS5003;56232;53.384;-2.732;2023-05-16T14:59:08;6;6;
69123;PMS5003;56232;53.384;-2.732;2023-05-16T15:01:34;5;5;
69123;PMS5003;56232;53.384;-2.732;2023-05-16T15:04:00;5;4;
69123;PMS5003;56232;53.384;-2.732;2023-05-16T15:06:25;7;5;
69123;PMS5003;56232;53.384;-2.732;2023-05-16T15:08:52;7;6;
69123;PMS5003;56232;53.384;-2.732;2023-05-16T15:11:17;5;5;
69123;PMS5003;56232;53.384;-2.732;2023-05-16T15:13:42;6;5;
69123;PMS5003;56232;53.384;-2.732;2023-05-16T15:16:08;6;4;
69123;PMS5003;56232;53.384;-2.732;2023-05-16T15:18:34;9;9;
69123;PMS5003;56232;53.384;-2.732;2023-05-16T15:20:59;7;6;
69123;PMS5003;56232;53.384;-2.732;2023-05-16T15:23:25;4;4;
69123;PMS5003;56232;53.384;-2.732;2023-05-16T15:25:50;5;5;
69123;PMS5003;56232;53.384;-2.732;2023-05-16T15:28:16;10;10;
69123;PMS5003;56232;53.384;-2.732;2023-05-16T15:30:41;8;6;
69123;PMS5003;56232;53.384;-2.732;2023-05-16T15:33:07;6;6;
69123;PMS5003;56232;53.384;-2.732;2023-05-16T15:35:33;6;5;
69123;PMS5003;56232;53.384;-2.732;2023-05-16T15:37:58;8;5;
69123;PMS5003;56232;53.384;-2.732;2023-05-16T15:40:24;8;5;
69123;PMS5003;56232;53.384;-2.732;2023-05-16T15:42:50;6;6;
69123;PMS5003;56232;53.384;-2.732;2023-05-16T15:45:15;9;7;
69123;PMS5003;56232;53.384;-2.732;2023-05-16T15:47:41;9;6;
69123;PMS5003;56232;53.384;-2.732;2023-05-16T15:50:07;4;4;
69123;PMS5003;56232;53.384;-2.732;2023-05-16T15:52:32;7;6;
69123;PMS5003;56232;53.384;-2.732;2023-05-16T15:54:57;5;4;
69123;PMS5003;56232;53.384;-2.732;2023-05-16T15:57:23;10;7;
69123;PMS5003;56232;53.384;-2.732;2023-05-16T15:59:49;6;6;
69123;PMS5003;56232;53.384;-2.732;2023-05-16T16:02:14;7;5;
69123;PMS5003;56232;53.384;-2.732;2023-05-16T16:04:40;5;5;
69123;PMS5003;56232;53.384;-2.732;2023-05-16T16:07:05;6;6;
69123;PMS5003;56232;53.384;-2.732;2023-05-16T16:09:31;6;5;
69123;PMS5003;56232;53.384;-2.732;2023-05-16T16:11:56;6;5;
69123;PMS5003;56232;53.384;-2.732;2023-05-16T16:14:22;7;6;
69123;PMS5003;56232;53.384;-2.732;2023-05-16T16:16:48;10;9;
69123;PMS5003;56232;53.384;-2.732;2023-05-16T16:19:14;7;5;
69123;PMS5003;56232;53.384;-2.732;2023-05-16T16:21:39;8;8;
69123;PMS5003;56232;53.384;-2.732;2023-05-16T16:24:05;6;5;
69123;PMS5003;56232;53.384;-2.732;2023-05-16T16:26:31;9;8;
69123;PMS5003;56232;53.384;-2.732;2023-05-16T16:28:56;7;6;
69123;PMS5003;56232;53.384;-2.732;2023-05-16T16:31:22;8;8;
69123;PMS5003;56232;53.384;-2.732;2023-05-16T16:33:47;6;5;